createdAt,value
2017-05-07T02:05:39.931Z,11.17
2017-05-07T02:05:44.368Z,11.17
2017-05-07T02:05:48.803Z,11.19
2017-05-07T02:05:53.235Z,11.13
2017-05-07T02:05:57.669Z,11.17
2017-05-07T02:06:02.132Z,11.2
2017-05-07T02:06:06.564Z,11.17
2017-05-07T02:06:10.870Z,11.2
2017-05-07T02:06:15.182Z,11.13
2017-05-07T02:06:19.525Z,11.13
2017-05-07T02:06:23.832Z,11.21
2017-05-07T02:06:28.265Z,11.27
2017-05-07T02:06:32.586Z,11.21
2017-05-07T02:06:36.909Z,11.12
2017-05-07T02:06:41.215Z,11.13
2017-05-07T02:06:45.651Z,11.23
2017-05-07T02:06:49.964Z,11.16
2017-05-07T02:06:54.272Z,11.11
2017-05-07T02:06:58.699Z,11.21
2017-05-07T02:07:03.125Z,11.23
2017-05-07T02:07:07.443Z,11.16
2017-05-07T02:07:11.752Z,11.21
2017-05-07T02:07:15.941Z,11.17
2017-05-07T02:07:20.372Z,11.17
2017-05-07T02:07:24.715Z,11.28
2017-05-07T02:07:29.029Z,11.2
2017-05-07T02:07:33.456Z,11.17
2017-05-07T02:07:37.933Z,11.21
2017-05-07T02:07:42.363Z,11.23
2017-05-07T02:07:46.799Z,11.26
2017-05-07T02:07:51.243Z,11.2
2017-05-07T02:07:55.552Z,11.23
2017-05-07T02:07:59.989Z,11.19
2017-05-07T02:08:04.420Z,11.13
2017-05-07T02:08:08.733Z,11.24
2017-05-07T02:08:13.046Z,11.13
2017-05-07T02:08:17.245Z,11.13
2017-05-07T02:08:21.555Z,11.13
2017-05-07T02:08:25.866Z,11.17
2017-05-07T02:08:30.181Z,11.28
2017-05-07T02:08:34.506Z,11.13
2017-05-07T02:08:38.926Z,11.11
2017-05-07T02:08:43.361Z,11.2
2017-05-07T02:08:47.687Z,11.19
2017-05-07T02:08:52.115Z,11.19
2017-05-07T02:08:56.549Z,11.19
2017-05-07T02:09:01.021Z,11.23
2017-05-07T02:09:05.453Z,11.19
2017-05-07T02:09:09.774Z,11.16
2017-05-07T02:09:13.962Z,11.24
2017-05-07T02:09:18.400Z,11.2
2017-05-07T02:09:22.855Z,11.21
2017-05-07T02:09:27.172Z,11.13
2017-05-07T02:09:31.604Z,11.16
2017-05-07T02:09:35.921Z,11.28
2017-05-07T02:09:40.384Z,11.17
2017-05-07T02:09:44.806Z,11.23
2017-05-07T02:09:49.236Z,11.24
2017-05-07T02:09:53.668Z,11.13
2017-05-07T02:09:58.116Z,11.13
2017-05-07T02:10:02.673Z,11.13
2017-05-07T02:10:07.101Z,11.2
2017-05-07T02:10:11.542Z,11.23
2017-05-07T02:10:15.733Z,11.16
2017-05-07T02:10:20.155Z,11.26
2017-05-07T02:10:24.580Z,11.17
2017-05-07T02:10:28.899Z,11.21
2017-05-07T02:10:33.331Z,11.17
2017-05-07T02:10:37.525Z,11.13
2017-05-07T02:10:41.967Z,11.16
2017-05-07T02:10:46.397Z,11.16
2017-05-07T02:10:50.828Z,11.2
2017-05-07T02:10:55.259Z,11.28
2017-05-07T02:10:59.693Z,11.24
2017-05-07T02:11:04.064Z,11.17
2017-05-07T02:11:08.535Z,11.16
2017-05-07T02:11:12.728Z,11.28
2017-05-07T02:11:17.160Z,11.17
2017-05-07T02:11:21.624Z,11.17
2017-05-07T02:11:25.935Z,11.17
2017-05-07T02:11:30.128Z,11.13
2017-05-07T02:11:34.560Z,11.19
2017-05-07T02:11:38.987Z,11.17
2017-05-07T02:11:43.180Z,11.28
2017-05-07T02:11:47.620Z,11.17
2017-05-07T02:11:52.047Z,11.23
2017-05-07T02:11:56.474Z,11.26
2017-05-07T02:12:00.905Z,11.16
2017-05-07T02:12:05.474Z,11.27
2017-05-07T02:12:09.664Z,11.27
2017-05-07T02:12:13.850Z,11.13
2017-05-07T02:12:18.039Z,11.17
2017-05-07T02:12:22.469Z,11.16
2017-05-07T02:12:26.786Z,11.26
2017-05-07T02:12:31.099Z,11.13
2017-05-07T02:12:35.528Z,11.28
2017-05-07T02:12:39.728Z,11.19
2017-05-07T02:12:44.160Z,11.12
2017-05-07T02:12:48.594Z,11.28
2017-05-07T02:12:53.057Z,11.21
2017-05-07T02:12:57.491Z,11.2
2017-05-07T02:13:02.226Z,11.19
2017-05-07T02:13:06.658Z,11.2
2017-05-07T02:13:10.970Z,11.19
2017-05-07T02:13:15.172Z,11.16
2017-05-07T02:13:19.602Z,11.2
2017-05-07T02:13:23.918Z,11.27
2017-05-07T02:13:28.367Z,11.2
2017-05-07T02:13:32.791Z,11.31
2017-05-07T02:13:37.110Z,11.2
2017-05-07T02:13:41.423Z,11.27
2017-05-07T02:13:45.847Z,11.31
2017-05-07T02:13:50.275Z,11.28
2017-05-07T02:13:54.717Z,11.2
2017-05-07T02:13:59.035Z,11.3
2017-05-07T02:14:03.465Z,11.31
2017-05-07T02:14:07.894Z,11.26
2017-05-07T02:14:12.204Z,11.26
2017-05-07T02:14:16.521Z,11.3
2017-05-07T02:14:20.958Z,11.28
2017-05-07T02:14:25.270Z,11.27
2017-05-07T02:14:29.586Z,11.27
2017-05-07T02:14:34.014Z,11.26
2017-05-07T02:14:38.323Z,11.2
2017-05-07T02:14:42.772Z,11.17
2017-05-07T02:14:47.199Z,11.28
2017-05-07T02:14:51.639Z,11.27
2017-05-07T02:14:56.073Z,11.26
2017-05-07T02:15:00.512Z,11.28
2017-05-07T02:15:04.828Z,11.27
2017-05-07T02:15:09.137Z,11.27
2017-05-07T02:15:13.331Z,11.33
2017-05-07T02:15:17.634Z,11.27
2017-05-07T02:15:22.064Z,11.3
2017-05-07T02:15:26.260Z,11.3
2017-05-07T02:15:30.570Z,11.26
2017-05-07T02:15:34.883Z,11.28
2017-05-07T02:15:39.316Z,11.28
2017-05-07T02:15:43.750Z,11.33
2017-05-07T02:15:48.183Z,11.2
2017-05-07T02:15:52.614Z,11.27
2017-05-07T02:15:57.047Z,11.28
2017-05-07T02:16:01.492Z,11.28
2017-05-07T02:16:06.049Z,11.3
2017-05-07T02:16:10.128Z,11.28
2017-05-07T02:16:14.432Z,11.28
2017-05-07T02:16:18.873Z,11.3
2017-05-07T02:16:23.218Z,11.28
2017-05-07T02:16:27.533Z,11.19
2017-05-07T02:16:31.962Z,11.31
2017-05-07T02:16:36.388Z,11.24
2017-05-07T02:16:40.851Z,11.26
2017-05-07T02:16:45.282Z,11.28
2017-05-07T02:16:49.709Z,11.28
2017-05-07T02:16:54.139Z,11.28
2017-05-07T02:16:58.598Z,11.28
2017-05-07T02:17:03.023Z,11.24
2017-05-07T02:17:07.341Z,11.27
2017-05-07T02:17:11.772Z,11.26
2017-05-07T02:17:15.853Z,11.21
2017-05-07T02:17:20.277Z,11.27
2017-05-07T02:17:24.705Z,11.31
2017-05-07T02:17:29.145Z,11.28
2017-05-07T02:17:33.097Z,11.31
2017-05-07T02:17:37.529Z,11.28
2017-05-07T02:17:41.997Z,11.24
2017-05-07T02:17:46.427Z,11.28
2017-05-07T02:17:50.856Z,11.2
2017-05-07T02:17:55.181Z,11.28
2017-05-07T02:17:59.618Z,11.2
2017-05-07T02:18:04.050Z,11.28
2017-05-07T02:18:08.242Z,11.16
2017-05-07T02:18:12.557Z,11.26
2017-05-07T02:18:16.868Z,11.36
2017-05-07T02:18:21.301Z,11.26
2017-05-07T02:18:25.497Z,11.28
2017-05-07T02:18:29.806Z,11.24
2017-05-07T02:18:34.272Z,11.28
2017-05-07T02:18:38.588Z,11.21
2017-05-07T02:18:43.021Z,11.35
2017-05-07T02:18:47.457Z,11.17
2017-05-07T02:18:51.886Z,11.27
2017-05-07T02:18:56.328Z,11.28
2017-05-07T02:19:00.769Z,11.2
2017-05-07T02:19:05.198Z,11.24
2017-05-07T02:19:09.401Z,11.27
2017-05-07T02:19:13.745Z,11.3
2017-05-07T02:19:18.178Z,11.17
2017-05-07T02:19:22.499Z,11.19
2017-05-07T02:19:26.821Z,11.13
2017-05-07T02:19:31.254Z,11.2
2017-05-07T02:19:35.690Z,11.2
2017-05-07T02:19:40.122Z,11.27
2017-05-07T02:19:44.559Z,11.27
2017-05-07T02:19:48.901Z,11.13
2017-05-07T02:19:53.333Z,11.27
2017-05-07T02:19:57.767Z,11.21
2017-05-07T02:20:02.192Z,11.31
2017-05-07T02:20:06.382Z,11.2
2017-05-07T02:20:10.455Z,11.26
2017-05-07T02:20:14.773Z,11.13
2017-05-07T02:20:19.077Z,11.24
2017-05-07T02:20:23.507Z,11.16
2017-05-07T02:20:27.708Z,11.16
2017-05-07T02:20:32.017Z,11.17
2017-05-07T02:20:36.206Z,11.19
2017-05-07T02:20:40.633Z,11.17
2017-05-07T02:20:45.061Z,11.19
2017-05-07T02:20:49.500Z,11.16
2017-05-07T02:20:53.941Z,11.2
2017-05-07T02:20:58.371Z,11.13
2017-05-07T02:21:02.800Z,11.23
2017-05-07T02:21:07.223Z,11.19
2017-05-07T02:21:11.656Z,11.2
2017-05-07T02:21:15.735Z,11.16
2017-05-07T02:21:20.167Z,11.2
2017-05-07T02:21:24.601Z,11.16
2017-05-07T02:21:28.915Z,11.17
2017-05-07T02:21:33.372Z,11.2
2017-05-07T02:21:37.697Z,11.24
2017-05-07T02:21:42.136Z,11.13
2017-05-07T02:21:46.572Z,11.21
2017-05-07T02:21:50.996Z,11.21
2017-05-07T02:21:55.426Z,11.24
2017-05-07T02:21:59.855Z,11.21
2017-05-07T02:22:04.161Z,11.2
2017-05-07T02:22:08.467Z,11.2
2017-05-07T02:22:12.541Z,11.2
2017-05-07T02:22:16.851Z,11.2
2017-05-07T02:22:21.281Z,11.12
2017-05-07T02:22:25.709Z,11.19
2017-05-07T02:22:30.035Z,11.19
2017-05-07T02:22:34.491Z,11.23
2017-05-07T02:22:38.800Z,11.2
2017-05-07T02:22:43.228Z,11.23
2017-05-07T02:22:47.568Z,11.12
2017-05-07T02:22:51.992Z,11.16
2017-05-07T02:22:56.422Z,11.19
2017-05-07T02:23:00.856Z,11.27
2017-05-07T02:23:05.440Z,11.23
2017-05-07T02:23:09.636Z,11.21
2017-05-07T02:23:13.943Z,11.21
2017-05-07T02:23:18.378Z,11.21
2017-05-07T02:23:22.699Z,11.17
2017-05-07T02:23:27.020Z,11.19
2017-05-07T02:23:31.330Z,11.2
2017-05-07T02:23:35.650Z,11.2
2017-05-07T02:23:40.088Z,11.17
2017-05-07T02:23:44.532Z,11.26
2017-05-07T02:23:48.958Z,11.16
2017-05-07T02:23:53.165Z,11.17
2017-05-07T02:23:57.599Z,11.21
2017-05-07T02:24:02.037Z,11.21
2017-05-07T02:24:06.343Z,11.2
2017-05-07T02:24:10.541Z,11.2
2017-05-07T02:24:14.748Z,11.17
2017-05-07T02:24:19.174Z,11.17
2017-05-07T02:24:23.608Z,11.21
2017-05-07T02:24:27.919Z,11.2
2017-05-07T02:24:32.353Z,11.13
2017-05-07T02:24:36.775Z,11.16
2017-05-07T02:24:41.204Z,11.21
2017-05-07T02:24:45.629Z,11.21
2017-05-07T02:24:50.062Z,11.21
2017-05-07T02:24:54.507Z,11.21
2017-05-07T02:24:58.935Z,11.24
2017-05-07T02:25:03.242Z,11.13
2017-05-07T02:25:07.554Z,11.17
2017-05-07T02:25:11.862Z,11.24
2017-05-07T02:25:16.053Z,11.19
2017-05-07T02:25:20.503Z,11.2
2017-05-07T02:25:24.940Z,11.21
2017-05-07T02:25:29.370Z,11.19
2017-05-07T02:25:33.808Z,11.13
2017-05-07T02:25:38.235Z,11.24
2017-05-07T02:25:42.670Z,11.19
2017-05-07T02:25:47.101Z,11.21
2017-05-07T02:25:51.531Z,11.2
2017-05-07T02:25:55.976Z,11.23
2017-05-07T02:26:00.283Z,11.21
2017-05-07T02:26:04.724Z,11.13
2017-05-07T02:26:09.028Z,11.11
2017-05-07T02:26:13.470Z,11.19
2017-05-07T02:26:17.796Z,11.19
2017-05-07T02:26:22.102Z,11.19
2017-05-07T02:26:26.299Z,11.2
2017-05-07T02:26:30.611Z,11.16
2017-05-07T02:26:35.039Z,11.17
2017-05-07T02:26:39.474Z,11.11
2017-05-07T02:26:43.903Z,11.17
2017-05-07T02:26:48.218Z,11.16
2017-05-07T02:26:52.527Z,11.19
2017-05-07T02:26:56.964Z,11.11
2017-05-07T02:27:01.387Z,11.16
2017-05-07T02:27:06.162Z,11.16
2017-05-07T02:27:10.593Z,11.16
2017-05-07T02:27:14.795Z,11.09
2017-05-07T02:27:19.231Z,11.2
2017-05-07T02:27:23.661Z,11.17
2017-05-07T02:27:27.873Z,11.12
2017-05-07T02:27:32.340Z,11.12
2017-05-07T02:27:36.772Z,11.13
2017-05-07T02:27:41.212Z,11.12
2017-05-07T02:27:45.645Z,11.12
2017-05-07T02:27:50.075Z,11.12
2017-05-07T02:27:54.278Z,11.2
2017-05-07T02:27:58.707Z,11.12
2017-05-07T02:28:03.445Z,11.17
2017-05-07T02:28:07.883Z,11.16
2017-05-07T02:28:12.110Z,11.17
2017-05-07T02:28:16.418Z,11.17
2017-05-07T02:28:20.850Z,11.17
2017-05-07T02:28:25.283Z,11.09
2017-05-07T02:28:29.484Z,11.06
2017-05-07T02:28:33.914Z,11.08
2017-05-07T02:28:38.338Z,11.09
2017-05-07T02:28:42.656Z,11.09
2017-05-07T02:28:46.887Z,11.08
2017-05-07T02:28:51.318Z,11.05
2017-05-07T02:28:55.763Z,11.09
2017-05-07T02:29:00.083Z,11.11
2017-05-07T02:29:04.507Z,11.16
2017-05-07T02:29:08.824Z,11.05
2017-05-07T02:29:13.265Z,11.08
2017-05-07T02:29:17.581Z,11.11
2017-05-07T02:29:22.013Z,11.12
2017-05-07T02:29:26.450Z,11.11
2017-05-07T02:29:30.763Z,11.06
2017-05-07T02:29:35.217Z,11.03
2017-05-07T02:29:39.556Z,11.02
2017-05-07T02:29:43.983Z,11.05
2017-05-07T02:29:48.420Z,11.05
2017-05-07T02:29:52.845Z,11.03
2017-05-07T02:29:57.276Z,11.13
2017-05-07T02:30:01.736Z,11.08
2017-05-07T02:30:06.053Z,11.02
2017-05-07T02:30:10.367Z,11.08
2017-05-07T02:30:14.686Z,11.08
2017-05-07T02:30:19.121Z,11.09
2017-05-07T02:30:23.432Z,11.06
2017-05-07T02:30:27.859Z,11.05
2017-05-07T02:30:32.294Z,11.08
2017-05-07T02:30:36.721Z,11.19
2017-05-07T02:30:41.151Z,11.09
2017-05-07T02:30:45.588Z,11.05
2017-05-07T02:30:50.049Z,11.05
2017-05-07T02:30:54.486Z,11.09
2017-05-07T02:30:58.919Z,11.02
2017-05-07T02:31:03.362Z,11.05
2017-05-07T02:31:07.675Z,11.05
2017-05-07T02:31:11.998Z,11.08
2017-05-07T02:31:16.425Z,11.11
2017-05-07T02:31:20.856Z,11.05
2017-05-07T02:31:25.171Z,11.03
2017-05-07T02:31:29.359Z,11.03
2017-05-07T02:31:33.790Z,11.06
2017-05-07T02:31:38.218Z,11.05
2017-05-07T02:31:42.556Z,11.08
2017-05-07T02:31:46.983Z,11.06
2017-05-07T02:31:51.408Z,11.05
2017-05-07T02:31:55.839Z,11.08
2017-05-07T02:32:00.273Z,11.05
2017-05-07T02:32:04.705Z,11.06
2017-05-07T02:32:09.015Z,11.05
2017-05-07T02:32:13.203Z,11.06
2017-05-07T02:32:17.522Z,11.05
2017-05-07T02:32:21.974Z,11.08
2017-05-07T02:32:26.171Z,11.05
2017-05-07T02:32:30.605Z,11.05
2017-05-07T02:32:35.047Z,11.01
2017-05-07T02:32:39.479Z,11.09
2017-05-07T02:32:43.902Z,11.03
2017-05-07T02:32:48.327Z,11.05
2017-05-07T02:32:52.768Z,11.03
2017-05-07T02:32:57.199Z,11.09
2017-05-07T02:33:01.729Z,11.06
2017-05-07T02:33:06.168Z,11.02
2017-05-07T02:33:10.597Z,11.05
2017-05-07T02:33:14.904Z,11.03
2017-05-07T02:33:18.856Z,11.05
2017-05-07T02:33:23.284Z,11.08
2017-05-07T02:33:27.602Z,11.03
2017-05-07T02:33:32.027Z,11.05
2017-05-07T02:33:36.454Z,11.03
2017-05-07T02:33:40.894Z,11.08
2017-05-07T02:33:45.322Z,11.01
2017-05-07T02:33:49.750Z,11.09
2017-05-07T02:33:54.183Z,11.06
2017-05-07T02:33:58.610Z,11.01
2017-05-07T02:34:03.133Z,11.03
2017-05-07T02:34:07.442Z,11.08
2017-05-07T02:34:11.757Z,11.02
2017-05-07T02:34:16.066Z,11.06
2017-05-07T02:34:20.378Z,11.08
2017-05-07T02:34:24.811Z,11.05
2017-05-07T02:34:29.281Z,11.01
2017-05-07T02:34:33.593Z,11.03
2017-05-07T02:34:37.903Z,11.05
2017-05-07T02:34:42.337Z,11.02
2017-05-07T02:34:46.647Z,11.03
2017-05-07T02:34:50.967Z,11.06
2017-05-07T02:34:55.400Z,11.02
2017-05-07T02:34:59.712Z,11.06
2017-05-07T02:35:04.079Z,11.03
2017-05-07T02:35:08.390Z,11.08
2017-05-07T02:35:12.702Z,11.09
2017-05-07T02:35:17.012Z,11.05
2017-05-07T02:35:21.328Z,11.08
2017-05-07T02:35:25.756Z,11.03
2017-05-07T02:35:30.067Z,11.06
2017-05-07T02:35:34.376Z,11.03
2017-05-07T02:35:38.807Z,11.06
2017-05-07T02:35:43.234Z,11.05
2017-05-07T02:35:47.664Z,11.03
2017-05-07T02:35:52.098Z,11.08
2017-05-07T02:35:56.525Z,10.98
2017-05-07T02:36:00.959Z,11.03
2017-05-07T02:36:05.488Z,11.03
2017-05-07T02:36:09.683Z,11.09
2017-05-07T02:36:14.115Z,11.08
2017-05-07T02:36:18.547Z,11.08
2017-05-07T02:36:22.973Z,11.08
2017-05-07T02:36:27.283Z,11.05
2017-05-07T02:36:31.632Z,11.02
2017-05-07T02:36:36.069Z,11.01
2017-05-07T02:36:40.494Z,11.08
2017-05-07T02:36:44.936Z,11.02
2017-05-07T02:36:49.250Z,11.01
2017-05-07T02:36:53.685Z,11.03
2017-05-07T02:36:58.143Z,10.99
2017-05-07T02:37:02.564Z,11.09
2017-05-07T02:37:06.873Z,11.05
2017-05-07T02:37:11.181Z,11.06
2017-05-07T02:37:15.377Z,11.01
2017-05-07T02:37:19.825Z,11.06
2017-05-07T02:37:24.254Z,11.01
2017-05-07T02:37:28.562Z,10.99
2017-05-07T02:37:32.868Z,10.95
2017-05-07T02:37:37.304Z,11.02
2017-05-07T02:37:41.734Z,11.01
2017-05-07T02:37:46.166Z,11.03
2017-05-07T02:37:50.473Z,11.09
2017-05-07T02:37:54.792Z,11.05
2017-05-07T02:37:59.213Z,11.02
2017-05-07T02:38:03.643Z,10.98
2017-05-07T02:38:07.832Z,10.95
2017-05-07T02:38:12.034Z,11.01
2017-05-07T02:38:16.345Z,11.01
2017-05-07T02:38:20.774Z,10.94
2017-05-07T02:38:25.211Z,11.05
2017-05-07T02:38:29.413Z,11.08
2017-05-07T02:38:33.723Z,11.09
2017-05-07T02:38:38.152Z,11.06
2017-05-07T02:38:42.587Z,10.95
2017-05-07T02:38:47.026Z,10.95
2017-05-07T02:38:51.339Z,10.99
2017-05-07T02:38:55.786Z,11.05
2017-05-07T02:38:59.983Z,11.03
2017-05-07T02:39:04.464Z,11.01
2017-05-07T02:39:08.780Z,11.01
2017-05-07T02:39:13.097Z,10.95
2017-05-07T02:39:17.404Z,10.99
2017-05-07T02:39:21.838Z,11.05
2017-05-07T02:39:26.163Z,11.02
2017-05-07T02:39:30.626Z,10.99
2017-05-07T02:39:35.048Z,11.05
2017-05-07T02:39:39.480Z,10.99
2017-05-07T02:39:43.911Z,10.95
2017-05-07T02:39:48.341Z,11.05
2017-05-07T02:39:52.776Z,10.99
2017-05-07T02:39:57.084Z,11.02
2017-05-07T02:40:01.523Z,10.99
2017-05-07T02:40:05.950Z,11.05
2017-05-07T02:40:10.265Z,10.98
2017-05-07T02:40:14.689Z,10.95
2017-05-07T02:40:19.119Z,10.95
2017-05-07T02:40:23.545Z,11.02
2017-05-07T02:40:27.738Z,11.08
2017-05-07T02:40:32.165Z,10.98
2017-05-07T02:40:36.593Z,11.02
2017-05-07T02:40:41.022Z,10.95
2017-05-07T02:40:45.464Z,10.99
2017-05-07T02:40:49.779Z,11.05
2017-05-07T02:40:54.220Z,11.03
2017-05-07T02:40:58.681Z,11.06
2017-05-07T02:41:03.110Z,11.02
2017-05-07T02:41:07.554Z,11.03
2017-05-07T02:41:11.743Z,11.03
2017-05-07T02:41:16.061Z,10.99
2017-05-07T02:41:20.526Z,10.95
2017-05-07T02:41:24.955Z,10.99
2017-05-07T02:41:29.388Z,10.98
2017-05-07T02:41:33.703Z,11.01
2017-05-07T02:41:38.129Z,11.02
2017-05-07T02:41:42.555Z,11.08
2017-05-07T02:41:47.004Z,10.98
2017-05-07T02:41:51.321Z,11.01
2017-05-07T02:41:55.753Z,10.95
2017-05-07T02:42:00.210Z,11.02
2017-05-07T02:42:04.622Z,10.94
2017-05-07T02:42:08.817Z,11.11
2017-05-07T02:42:13.013Z,11.03
2017-05-07T02:42:17.445Z,11.06
2017-05-07T02:42:21.757Z,10.99
2017-05-07T02:42:26.189Z,10.95
2017-05-07T02:42:30.621Z,10.98
2017-05-07T02:42:35.052Z,11.05
2017-05-07T02:42:39.496Z,11.05
2017-05-07T02:42:43.813Z,11.05
2017-05-07T02:42:48.285Z,11.08
2017-05-07T02:42:52.714Z,11.02
2017-05-07T02:42:57.044Z,10.99
2017-05-07T02:43:01.476Z,11.05
2017-05-07T02:43:05.900Z,11.02
2017-05-07T02:43:10.098Z,10.99
2017-05-07T02:43:14.292Z,11.03
2017-05-07T02:43:18.763Z,11.03
2017-05-07T02:43:23.193Z,11.05
2017-05-07T02:43:27.502Z,10.98
2017-05-07T02:43:31.927Z,11.01
2017-05-07T02:43:36.367Z,10.99
2017-05-07T02:43:40.796Z,11.05
2017-05-07T02:43:45.220Z,11.03
2017-05-07T02:43:49.645Z,10.95
2017-05-07T02:43:54.105Z,11.02
2017-05-07T02:43:58.534Z,10.99
2017-05-07T02:44:03.273Z,10.99
2017-05-07T02:44:07.715Z,11.09
2017-05-07T02:44:12.143Z,11.05
2017-05-07T02:44:16.335Z,11.06
2017-05-07T02:44:20.762Z,11.02
2017-05-07T02:44:25.196Z,11.01
2017-05-07T02:44:29.394Z,11.03
2017-05-07T02:44:33.705Z,11.01
2017-05-07T02:44:38.147Z,11.02
2017-05-07T02:44:42.463Z,11.05
2017-05-07T02:44:46.886Z,10.99
2017-05-07T02:44:51.318Z,11.03
2017-05-07T02:44:55.745Z,11.01
2017-05-07T02:45:00.091Z,11.02
2017-05-07T02:45:04.820Z,11.03
2017-05-07T02:45:09.131Z,10.98
2017-05-07T02:45:13.321Z,11.03
2017-05-07T02:45:17.774Z,10.99
2017-05-07T02:45:22.199Z,11.01
2017-05-07T02:45:26.505Z,11.03
2017-05-07T02:45:30.825Z,11.05
2017-05-07T02:45:35.251Z,11.03
2017-05-07T02:45:39.679Z,11.06
2017-05-07T02:45:44.122Z,11.01
2017-05-07T02:45:48.549Z,11.02
2017-05-07T02:45:52.853Z,11.02
2017-05-07T02:45:57.170Z,11.09
2017-05-07T02:46:01.597Z,10.99
2017-05-07T02:46:06.033Z,10.98
2017-05-07T02:46:10.342Z,11.03
2017-05-07T02:46:14.659Z,11.02
2017-05-07T02:46:19.117Z,11.02
2017-05-07T02:46:23.431Z,11.02
2017-05-07T02:46:27.857Z,11.02
2017-05-07T02:46:32.294Z,10.98
2017-05-07T02:46:36.609Z,11.02
2017-05-07T02:46:40.809Z,11.03
2017-05-07T02:46:45.236Z,11.08
2017-05-07T02:46:49.664Z,10.99
2017-05-07T02:46:54.092Z,10.98
2017-05-07T02:46:58.402Z,10.99
2017-05-07T02:47:02.829Z,10.98
2017-05-07T02:47:07.254Z,10.99
2017-05-07T02:47:11.469Z,10.98
2017-05-07T02:47:15.780Z,10.98
2017-05-07T02:47:20.211Z,10.99
2017-05-07T02:47:24.645Z,11.05
2017-05-07T02:47:28.956Z,11.02
2017-05-07T02:47:33.376Z,11.01
2017-05-07T02:47:37.706Z,10.99
2017-05-07T02:47:42.154Z,10.98
2017-05-07T02:47:46.585Z,11.08
2017-05-07T02:47:51.016Z,11.03
2017-05-07T02:47:55.444Z,11.01
2017-05-07T02:47:59.878Z,11.06
2017-05-07T02:48:04.513Z,11.06
2017-05-07T02:48:08.596Z,10.99
2017-05-07T02:48:12.912Z,11.02
2017-05-07T02:48:17.220Z,11.06
2017-05-07T02:48:21.530Z,11.01
2017-05-07T02:48:25.970Z,10.95
2017-05-07T02:48:30.317Z,10.99
2017-05-07T02:48:34.739Z,10.99
2017-05-07T02:48:39.066Z,10.99
2017-05-07T02:48:43.501Z,11.03
2017-05-07T02:48:47.929Z,11.01
2017-05-07T02:48:52.366Z,10.99
2017-05-07T02:48:56.802Z,10.98
2017-05-07T02:49:00.991Z,11.01
2017-05-07T02:49:05.421Z,11.01
2017-05-07T02:49:09.852Z,11.02
2017-05-07T02:49:14.285Z,11.03
2017-05-07T02:49:18.721Z,10.99
2017-05-07T02:49:23.150Z,11.11
2017-05-07T02:49:27.467Z,11.02
2017-05-07T02:49:31.679Z,11.01
2017-05-07T02:49:36.111Z,11.06
2017-05-07T02:49:40.540Z,11.03
2017-05-07T02:49:44.971Z,11.05
2017-05-07T02:49:49.398Z,11.05
2017-05-07T02:49:53.716Z,11.12
2017-05-07T02:49:58.143Z,11.03
2017-05-07T02:50:02.610Z,11.05
2017-05-07T02:50:07.040Z,11.05
2017-05-07T02:50:11.228Z,11.08
2017-05-07T02:50:15.304Z,11.09
2017-05-07T02:50:19.737Z,11.05
2017-05-07T02:50:24.162Z,11.06
2017-05-07T02:50:28.356Z,11.09
2017-05-07T02:50:32.314Z,11.06
2017-05-07T02:50:36.744Z,11.03
2017-05-07T02:50:41.057Z,11.02
2017-05-07T02:50:45.479Z,11.03
2017-05-07T02:50:49.907Z,11.05
2017-05-07T02:50:54.341Z,11.11
2017-05-07T02:50:58.768Z,11.03
2017-05-07T02:51:03.197Z,11.09
2017-05-07T02:51:07.629Z,11.06
2017-05-07T02:51:11.820Z,11.05
2017-05-07T02:51:16.140Z,11.03
2017-05-07T02:51:20.572Z,11.02
2017-05-07T02:51:25.005Z,11.03
2017-05-07T02:51:29.344Z,11.01
2017-05-07T02:51:33.770Z,11.03
2017-05-07T02:51:38.194Z,11.02
2017-05-07T02:51:42.625Z,11.03
2017-05-07T02:51:47.054Z,11.03
2017-05-07T02:51:51.478Z,11.06
2017-05-07T02:51:55.904Z,11.01
2017-05-07T02:52:00.337Z,10.99
2017-05-07T02:52:04.821Z,11.06
2017-05-07T02:52:09.016Z,11.05
2017-05-07T02:52:13.084Z,11.06
2017-05-07T02:52:17.391Z,11.01
2017-05-07T02:52:21.836Z,11.09
2017-05-07T02:52:26.144Z,10.99
2017-05-07T02:52:30.450Z,11.05
2017-05-07T02:52:34.874Z,11.03
2017-05-07T02:52:39.304Z,11.05
2017-05-07T02:52:43.745Z,11.02
2017-05-07T02:52:48.175Z,11.02
2017-05-07T02:52:52.602Z,11.11
2017-05-07T02:52:57.049Z,11.03
2017-05-07T02:53:01.474Z,11.05
2017-05-07T02:53:05.904Z,11.08
2017-05-07T02:53:10.224Z,11.02
2017-05-07T02:53:14.440Z,11.05
2017-05-07T02:53:18.872Z,11.03
2017-05-07T02:53:23.303Z,11.03
2017-05-07T02:53:27.622Z,11.02
2017-05-07T02:53:32.050Z,11.02
2017-05-07T02:53:36.480Z,11.06
2017-05-07T02:53:40.915Z,11.08
2017-05-07T02:53:45.347Z,11.08
2017-05-07T02:53:49.777Z,11.05
2017-05-07T02:53:54.208Z,11.05
2017-05-07T02:53:58.642Z,11.05
2017-05-07T02:54:03.177Z,11.03
2017-05-07T02:54:07.493Z,11.05
2017-05-07T02:54:11.805Z,11.02
2017-05-07T02:54:16.237Z,11.08
2017-05-07T02:54:20.561Z,10.99
2017-05-07T02:54:24.992Z,11.09
2017-05-07T02:54:29.182Z,11.03
2017-05-07T02:54:33.610Z,11.08
2017-05-07T02:54:38.058Z,11.09
2017-05-07T02:54:42.493Z,11.01
2017-05-07T02:54:46.926Z,11.06
2017-05-07T02:54:51.362Z,11.01
2017-05-07T02:54:55.799Z,11.03
2017-05-07T02:55:00.235Z,11.05
2017-05-07T02:55:04.663Z,11.01
2017-05-07T02:55:08.855Z,11.08
2017-05-07T02:55:13.284Z,11.05
2017-05-07T02:55:17.708Z,11.02
2017-05-07T02:55:21.898Z,11.08
2017-05-07T02:55:26.331Z,11.05
2017-05-07T02:55:30.638Z,11.03
2017-05-07T02:55:35.058Z,11.03
2017-05-07T02:55:39.504Z,11.06
2017-05-07T02:55:43.938Z,11.09
2017-05-07T02:55:48.368Z,11.08
2017-05-07T02:55:52.809Z,11.05
2017-05-07T02:55:57.236Z,11.09
2017-05-07T02:56:01.918Z,11.02
2017-05-07T02:56:06.248Z,11.03
2017-05-07T02:56:10.437Z,11.03
2017-05-07T02:56:14.638Z,11.05
2017-05-07T02:56:18.834Z,11.02
2017-05-07T02:56:23.264Z,11.03
2017-05-07T02:56:27.687Z,11.02
2017-05-07T02:56:32.114Z,11.09
2017-05-07T02:56:36.547Z,11.08
2017-05-07T02:56:40.970Z,11.03
2017-05-07T02:56:45.395Z,11.06
2017-05-07T02:56:49.831Z,11.11
2017-05-07T02:56:54.263Z,11.03
2017-05-07T02:56:58.691Z,11.01
2017-05-07T02:57:03.129Z,11.09
2017-05-07T02:57:07.570Z,11.01
2017-05-07T02:57:11.761Z,11.02
2017-05-07T02:57:16.070Z,11.06
2017-05-07T02:57:20.509Z,10.98
2017-05-07T02:57:24.943Z,10.99
2017-05-07T02:57:29.252Z,11.06
2017-05-07T02:57:33.688Z,11.11
2017-05-07T02:57:38.121Z,11.03
2017-05-07T02:57:42.556Z,11.03
2017-05-07T02:57:46.988Z,11.06
2017-05-07T02:57:51.425Z,11.02
2017-05-07T02:57:55.870Z,11.08
2017-05-07T02:58:00.301Z,11.06
2017-05-07T02:58:04.928Z,11.06
2017-05-07T02:58:09.255Z,11.01
2017-05-07T02:58:13.576Z,10.99
2017-05-07T02:58:17.881Z,11.06
2017-05-07T02:58:22.321Z,10.99
2017-05-07T02:58:26.630Z,11.03
2017-05-07T02:58:30.949Z,11.05
2017-05-07T02:58:35.258Z,11.06
2017-05-07T02:58:39.691Z,11.16
2017-05-07T02:58:44.127Z,11.05
2017-05-07T02:58:48.552Z,11.03
2017-05-07T02:58:52.982Z,11.02
2017-05-07T02:58:57.433Z,11.02
2017-05-07T02:59:01.863Z,11.09
2017-05-07T02:59:06.109Z,11.08
2017-05-07T02:59:10.306Z,11.02
2017-05-07T02:59:14.749Z,11.03
2017-05-07T02:59:19.222Z,11.01
2017-05-07T02:59:23.656Z,11.02
2017-05-07T02:59:27.850Z,11.02
2017-05-07T02:59:32.278Z,10.98
2017-05-07T02:59:36.712Z,11.01
2017-05-07T02:59:41.145Z,11.06
2017-05-07T02:59:45.570Z,11.02
2017-05-07T02:59:50.007Z,11.02
2017-05-07T02:59:54.433Z,11.09
2017-05-07T02:59:58.867Z,11.03
2017-05-07T03:00:03.304Z,11.03
2017-05-07T03:00:07.499Z,11.03
2017-05-07T03:00:11.571Z,11.09
2017-05-07T03:00:15.762Z,11.11
2017-05-07T03:00:20.189Z,11.06
2017-05-07T03:00:24.624Z,11.09
2017-05-07T03:00:28.816Z,11.03
2017-05-07T03:00:33.127Z,11.05
2017-05-07T03:00:37.555Z,11.08
2017-05-07T03:00:41.987Z,11.12
2017-05-07T03:00:46.444Z,11.06
2017-05-07T03:00:51.125Z,11.09
2017-05-07T03:00:55.552Z,11.05
2017-05-07T03:00:59.876Z,11.06
2017-05-07T03:01:04.357Z,11.02
2017-05-07T03:01:08.780Z,11.11
2017-05-07T03:01:12.976Z,11.03
2017-05-07T03:01:17.408Z,11.03
2017-05-07T03:01:21.835Z,11.09
2017-05-07T03:01:26.263Z,11.06
2017-05-07T03:01:30.570Z,11.09
2017-05-07T03:01:34.999Z,11.11
2017-05-07T03:01:39.436Z,11.06
2017-05-07T03:01:43.747Z,11.09
2017-05-07T03:01:48.180Z,11.02
2017-05-07T03:01:52.489Z,11.03
2017-05-07T03:01:56.925Z,11.03
2017-05-07T03:02:01.357Z,11.08
2017-05-07T03:02:05.788Z,11.09
2017-05-07T03:02:09.979Z,11.05